sensor_id;sensor_type;location;lat;lon;timestamp;P1;durP1;ratioP1;P2;durP2;ratioP2
80557;SDS011;69901;43.524;-5.636;2023-12-07T00:01:33;14.77;;;10.43;;
80557;SDS011;69901;43.524;-5.636;2023-12-07T00:04:02;13.02;;;10.35;;
80557;SDS011;69901;43.524;-5.636;2023-12-07T00:06:28;14.07;;;9.38;;
80557;SDS011;69901;43.524;-5.636;2023-12-07T00:08:54;21.10;;;13.80;;
80557;SDS011;69901;43.524;-5.636;2023-12-07T00:11:21;20.97;;;14.67;;
80557;SDS011;69901;43.524;-5.636;2023-12-07T00:13:48;17.88;;;12.70;;
80557;SDS011;69901;43.524;-5.636;2023-12-07T00:16:13;15.00;;;10.82;;
80557;SDS011;69901;43.524;-5.636;2023-12-07T00:18:39;16.27;;;11.20;;
80557;SDS011;69901;43.524;-5.636;2023-12-07T00:21:04;15.73;;;11.00;;
80557;SDS011;69901;43.524;-5.636;2023-12-07T00:23:30;15.13;;;10.77;;
80557;SDS011;69901;43.524;-5.636;2023-12-07T00:25:55;13.90;;;10.00;;
80557;SDS011;69901;43.524;-5.636;2023-12-07T00:28:21;11.23;;;9.00;;
80557;SDS011;69901;43.524;-5.636;2023-12-07T00:30:46;13.57;;;10.50;;
80557;SDS011;69901;43.524;-5.636;2023-12-07T00:33:12;13.43;;;10.13;;
80557;SDS011;69901;43.524;-5.636;2023-12-07T00:35:37;14.33;;;10.03;;
80557;SDS011;69901;43.524;-5.636;2023-12-07T00:38:03;13.73;;;10.63;;
80557;SDS011;69901;43.524;-5.636;2023-12-07T00:40:28;13.55;;;10.45;;
80557;SDS011;69901;43.524;-5.636;2023-12-07T00:42:54;13.23;;;9.90;;
80557;SDS011;69901;43.524;-5.636;2023-12-07T00:45:19;12.50;;;9.43;;
80557;SDS011;69901;43.524;-5.636;2023-12-07T00:47:45;13.80;;;10.18;;
80557;SDS011;69901;43.524;-5.636;2023-12-07T00:50:13;14.53;;;9.77;;
80557;SDS011;69901;43.524;-5.636;2023-12-07T00:52:39;12.80;;;9.70;;
80557;SDS011;69901;43.524;-5.636;2023-12-07T00:55:05;11.63;;;9.43;;
80557;SDS011;69901;43.524;-5.636;2023-12-07T00:57:31;15.27;;;9.93;;
80557;SDS011;69901;43.524;-5.636;2023-12-07T00:59:56;14.27;;;9.60;;
80557;SDS011;69901;43.524;-5.636;2023-12-07T01:02:22;13.27;;;9.68;;
80557;SDS011;69901;43.524;-5.636;2023-12-07T01:04:48;11.33;;;9.37;;
80557;SDS011;69901;43.524;-5.636;2023-12-07T01:07:13;14.33;;;9.83;;
80557;SDS011;69901;43.524;-5.636;2023-12-07T01:09:39;12.13;;;9.80;;
80557;SDS011;69901;43.524;-5.636;2023-12-07T01:12:04;12.10;;;9.43;;
80557;SDS011;69901;43.524;-5.636;2023-12-07T01:14:30;14.67;;;10.87;;
80557;SDS011;69901;43.524;-5.636;2023-12-07T01:16:55;14.00;;;10.43;;
80557;SDS011;69901;43.524;-5.636;2023-12-07T01:19:21;13.95;;;10.85;;
80557;SDS011;69901;43.524;-5.636;2023-12-07T01:21:46;11.80;;;9.43;;
80557;SDS011;69901;43.524;-5.636;2023-12-07T01:24:12;13.40;;;10.30;;
80557;SDS011;69901;43.524;-5.636;2023-12-07T01:26:37;13.10;;;10.30;;
80557;SDS011;69901;43.524;-5.636;2023-12-07T01:29:03;10.53;;;8.40;;
80557;SDS011;69901;43.524;-5.636;2023-12-07T01:31:29;12.20;;;10.20;;
80557;SDS011;69901;43.524;-5.636;2023-12-07T01:33:55;10.98;;;9.55;;
80557;SDS011;69901;43.524;-5.636;2023-12-07T01:36:21;11.23;;;8.43;;
80557;SDS011;69901;43.524;-5.636;2023-12-07T01:38:46;12.65;;;8.63;;
80557;SDS011;69901;43.524;-5.636;2023-12-07T01:41:12;10.90;;;8.33;;
80557;SDS011;69901;43.524;-5.636;2023-12-07T01:43:37;8.73;;;7.77;;
80557;SDS011;69901;43.524;-5.636;2023-12-07T01:46:03;9.60;;;7.80;;
80557;SDS011;69901;43.524;-5.636;2023-12-07T01:48:28;10.67;;;7.53;;
80557;SDS011;69901;43.524;-5.636;2023-12-07T01:50:55;10.02;;;8.70;;
80557;SDS011;69901;43.524;-5.636;2023-12-07T01:53:21;13.63;;;9.05;;
80557;SDS011;69901;43.524;-5.636;2023-12-07T01:55:48;13.20;;;9.40;;
80557;SDS011;69901;43.524;-5.636;2023-12-07T01:58:15;12.60;;;9.50;;
80557;SDS011;69901;43.524;-5.636;2023-12-07T02:00:42;13.00;;;9.75;;
80557;SDS011;69901;43.524;-5.636;2023-12-07T02:03:08;12.10;;;9.68;;
80557;SDS011;69901;43.524;-5.636;2023-12-07T02:05:33;13.77;;;8.67;;
80557;SDS011;69901;43.524;-5.636;2023-12-07T02:08:01;12.25;;;9.27;;
80557;SDS011;69901;43.524;-5.636;2023-12-07T02:10:27;11.40;;;9.33;;
80557;SDS011;69901;43.524;-5.636;2023-12-07T02:12:52;11.57;;;8.13;;
80557;SDS011;69901;43.524;-5.636;2023-12-07T02:15:20;11.00;;;8.38;;
80557;SDS011;69901;43.524;-5.636;2023-12-07T02:20:41;11.13;;;8.40;;
80557;SDS011;69901;43.524;-5.636;2023-12-07T02:23:10;10.05;;;7.78;;
80557;SDS011;69901;43.524;-5.636;2023-12-07T02:28:31;20.70;;;12.18;;
80557;SDS011;69901;43.524;-5.636;2023-12-07T02:30:57;17.43;;;11.30;;
80557;SDS011;69901;43.524;-5.636;2023-12-07T02:33:23;13.17;;;9.20;;
80557;SDS011;69901;43.524;-5.636;2023-12-07T02:35:48;10.52;;;8.68;;
80557;SDS011;69901;43.524;-5.636;2023-12-07T02:38:14;11.67;;;8.70;;
80557;SDS011;69901;43.524;-5.636;2023-12-07T02:40:41;9.80;;;7.93;;
80557;SDS011;69901;43.524;-5.636;2023-12-07T02:43:09;11.43;;;7.97;;
80557;SDS011;69901;43.524;-5.636;2023-12-07T02:45:35;9.90;;;7.93;;
80557;SDS011;69901;43.524;-5.636;2023-12-07T02:48:01;10.68;;;8.15;;
80557;SDS011;69901;43.524;-5.636;2023-12-07T02:50:27;10.53;;;8.40;;
80557;SDS011;69901;43.524;-5.636;2023-12-07T02:52:52;11.90;;;9.32;;
80557;SDS011;69901;43.524;-5.636;2023-12-07T02:55:18;12.17;;;8.73;;
80557;SDS011;69901;43.524;-5.636;2023-12-07T02:57:43;12.38;;;9.32;;
80557;SDS011;69901;43.524;-5.636;2023-12-07T03:00:09;11.93;;;8.80;;
80557;SDS011;69901;43.524;-5.636;2023-12-07T03:02:38;11.93;;;8.93;;
80557;SDS011;69901;43.524;-5.636;2023-12-07T03:05:04;14.18;;;10.05;;
80557;SDS011;69901;43.524;-5.636;2023-12-07T03:07:30;11.97;;;9.03;;
80557;SDS011;69901;43.524;-5.636;2023-12-07T03:09:56;11.70;;;8.38;;
80557;SDS011;69901;43.524;-5.636;2023-12-07T03:12:22;11.23;;;7.77;;
80557;SDS011;69901;43.524;-5.636;2023-12-07T03:14:48;11.30;;;8.00;;
80557;SDS011;69901;43.524;-5.636;2023-12-07T03:17:14;14.10;;;9.55;;
80557;SDS011;69901;43.524;-5.636;2023-12-07T03:19:39;12.67;;;8.60;;
80557;SDS011;69901;43.524;-5.636;2023-12-07T03:22:05;11.48;;;8.75;;
80557;SDS011;69901;43.524;-5.636;2023-12-07T03:24:32;11.20;;;8.47;;
80557;SDS011;69901;43.524;-5.636;2023-12-07T03:26:59;10.10;;;7.60;;
80557;SDS011;69901;43.524;-5.636;2023-12-07T03:29:24;11.43;;;8.23;;
80557;SDS011;69901;43.524;-5.636;2023-12-07T03:31:50;10.98;;;7.70;;
80557;SDS011;69901;43.524;-5.636;2023-12-07T03:34:15;12.97;;;7.80;;
80557;SDS011;69901;43.524;-5.636;2023-12-07T03:36:42;10.83;;;7.70;;
80557;SDS011;69901;43.524;-5.636;2023-12-07T03:39:10;11.32;;;6.82;;
80557;SDS011;69901;43.524;-5.636;2023-12-07T03:41:36;15.43;;;8.90;;
80557;SDS011;69901;43.524;-5.636;2023-12-07T03:44:01;11.27;;;7.63;;
80557;SDS011;69901;43.524;-5.636;2023-12-07T03:46:27;11.60;;;7.70;;
80557;SDS011;69901;43.524;-5.636;2023-12-07T03:48:52;15.53;;;8.70;;
80557;SDS011;69901;43.524;-5.636;2023-12-07T03:51:18;11.53;;;7.80;;
80557;SDS011;69901;43.524;-5.636;2023-12-07T03:53:43;11.85;;;7.68;;
80557;SDS011;69901;43.524;-5.636;2023-12-07T03:56:09;11.67;;;7.33;;
80557;SDS011;69901;43.524;-5.636;2023-12-07T03:58:35;10.98;;;7.50;;
80557;SDS011;69901;43.524;-5.636;2023-12-07T04:01:00;12.27;;;8.13;;
80557;SDS011;69901;43.524;-5.636;2023-12-07T04:03:26;10.63;;;7.63;;
80557;SDS011;69901;43.524;-5.636;2023-12-07T04:05:51;10.03;;;7.03;;
80557;SDS011;69901;43.524;-5.636;2023-12-07T04:08:17;12.53;;;7.33;;
80557;SDS011;69901;43.524;-5.636;2023-12-07T04:10:42;10.07;;;6.90;;
80557;SDS011;69901;43.524;-5.636;2023-12-07T04:13:08;11.77;;;7.17;;
80557;SDS011;69901;43.524;-5.636;2023-12-07T04:15:33;11.00;;;7.03;;
80557;SDS011;69901;43.524;-5.636;2023-12-07T04:17:59;10.93;;;6.87;;
80557;SDS011;69901;43.524;-5.636;2023-12-07T04:20:24;10.68;;;7.03;;
80557;SDS011;69901;43.524;-5.636;2023-12-07T04:22:50;10.67;;;7.03;;
80557;SDS011;69901;43.524;-5.636;2023-12-07T04:25:16;10.60;;;6.30;;
80557;SDS011;69901;43.524;-5.636;2023-12-07T04:27:41;10.37;;;6.63;;
80557;SDS011;69901;43.524;-5.636;2023-12-07T04:30:07;9.40;;;6.33;;
80557;SDS011;69901;43.524;-5.636;2023-12-07T04:32:33;10.10;;;6.40;;
80557;SDS011;69901;43.524;-5.636;2023-12-07T04:34:58;10.93;;;7.40;;
80557;SDS011;69901;43.524;-5.636;2023-12-07T04:37:24;9.40;;;6.50;;
80557;SDS011;69901;43.524;-5.636;2023-12-07T04:39:49;9.23;;;5.90;;
80557;SDS011;69901;43.524;-5.636;2023-12-07T04:42:14;9.33;;;6.17;;
80557;SDS011;69901;43.524;-5.636;2023-12-07T04:44:41;10.98;;;6.38;;
80557;SDS011;69901;43.524;-5.636;2023-12-07T04:47:06;10.67;;;7.27;;
80557;SDS011;69901;43.524;-5.636;2023-12-07T04:49:32;12.53;;;8.20;;
80557;SDS011;69901;43.524;-5.636;2023-12-07T04:51:57;9.40;;;6.83;;
80557;SDS011;69901;43.524;-5.636;2023-12-07T04:54:23;10.93;;;7.00;;
80557;SDS011;69901;43.524;-5.636;2023-12-07T04:56:48;13.73;;;7.17;;
80557;SDS011;69901;43.524;-5.636;2023-12-07T04:59:14;11.03;;;8.57;;
80557;SDS011;69901;43.524;-5.636;2023-12-07T05:01:39;11.57;;;7.43;;
80557;SDS011;69901;43.524;-5.636;2023-12-07T05:04:05;11.73;;;7.25;;
80557;SDS011;69901;43.524;-5.636;2023-12-07T05:06:31;12.07;;;6.90;;
80557;SDS011;69901;43.524;-5.636;2023-12-07T05:08:57;13.57;;;7.20;;
80557;SDS011;69901;43.524;-5.636;2023-12-07T05:11:22;11.60;;;6.82;;
80557;SDS011;69901;43.524;-5.636;2023-12-07T05:13:48;9.90;;;6.50;;
80557;SDS011;69901;43.524;-5.636;2023-12-07T05:16:13;11.60;;;6.90;;
80557;SDS011;69901;43.524;-5.636;2023-12-07T05:18:39;10.85;;;7.20;;
80557;SDS011;69901;43.524;-5.636;2023-12-07T05:21:06;11.80;;;6.75;;
80557;SDS011;69901;43.524;-5.636;2023-12-07T05:23:31;13.43;;;6.20;;
80557;SDS011;69901;43.524;-5.636;2023-12-07T05:25:57;11.17;;;5.37;;
80557;SDS011;69901;43.524;-5.636;2023-12-07T05:28:23;8.60;;;5.37;;
80557;SDS011;69901;43.524;-5.636;2023-12-07T05:30:48;11.00;;;6.55;;
80557;SDS011;69901;43.524;-5.636;2023-12-07T05:33:14;9.33;;;5.40;;
80557;SDS011;69901;43.524;-5.636;2023-12-07T05:35:41;10.18;;;5.63;;
80557;SDS011;69901;43.524;-5.636;2023-12-07T05:38:06;10.33;;;5.73;;
80557;SDS011;69901;43.524;-5.636;2023-12-07T05:40:31;9.95;;;5.10;;
80557;SDS011;69901;43.524;-5.636;2023-12-07T05:42:58;12.43;;;5.07;;
80557;SDS011;69901;43.524;-5.636;2023-12-07T05:45:24;10.20;;;5.32;;
80557;SDS011;69901;43.524;-5.636;2023-12-07T05:47:51;10.02;;;6.05;;
80557;SDS011;69901;43.524;-5.636;2023-12-07T05:50:17;9.75;;;5.85;;
80557;SDS011;69901;43.524;-5.636;2023-12-07T05:52:42;9.50;;;5.30;;
80557;SDS011;69901;43.524;-5.636;2023-12-07T05:55:09;8.93;;;5.82;;
80557;SDS011;69901;43.524;-5.636;2023-12-07T05:57:34;9.43;;;5.67;;
80557;SDS011;69901;43.524;-5.636;2023-12-07T06:00:00;11.57;;;6.03;;
80557;SDS011;69901;43.524;-5.636;2023-12-07T06:02:25;10.97;;;6.47;;
80557;SDS011;69901;43.524;-5.636;2023-12-07T06:04:51;12.75;;;6.00;;
80557;SDS011;69901;43.524;-5.636;2023-12-07T06:07:16;8.73;;;5.97;;
80557;SDS011;69901;43.524;-5.636;2023-12-07T06:09:42;16.23;;;6.53;;
80557;SDS011;69901;43.524;-5.636;2023-12-07T06:12:07;11.30;;;5.70;;
80557;SDS011;69901;43.524;-5.636;2023-12-07T06:14:33;10.43;;;5.73;;
80557;SDS011;69901;43.524;-5.636;2023-12-07T06:16:58;10.97;;;6.13;;
80557;SDS011;69901;43.524;-5.636;2023-12-07T06:19:24;8.20;;;5.37;;
80557;SDS011;69901;43.524;-5.636;2023-12-07T06:21:50;9.00;;;5.28;;
80557;SDS011;69901;43.524;-5.636;2023-12-07T06:24:15;10.05;;;5.70;;
80557;SDS011;69901;43.524;-5.636;2023-12-07T06:26:41;9.20;;;6.10;;
80557;SDS011;69901;43.524;-5.636;2023-12-07T06:29:07;10.67;;;6.70;;
80557;SDS011;69901;43.524;-5.636;2023-12-07T06:31:32;10.52;;;6.82;;
80557;SDS011;69901;43.524;-5.636;2023-12-07T06:33:58;9.53;;;6.03;;
80557;SDS011;69901;43.524;-5.636;2023-12-07T06:36:25;8.52;;;5.63;;
80557;SDS011;69901;43.524;-5.636;2023-12-07T06:38:52;12.55;;;6.40;;
80557;SDS011;69901;43.524;-5.636;2023-12-07T06:41:18;9.80;;;5.63;;
80557;SDS011;69901;43.524;-5.636;2023-12-07T06:43:43;11.83;;;6.77;;
80557;SDS011;69901;43.524;-5.636;2023-12-07T06:46:10;14.17;;;6.40;;
80557;SDS011;69901;43.524;-5.636;2023-12-07T06:48:36;9.60;;;5.53;;
80557;SDS011;69901;43.524;-5.636;2023-12-07T06:51:02;12.80;;;5.70;;
80557;SDS011;69901;43.524;-5.636;2023-12-07T06:53:28;10.45;;;6.10;;
80557;SDS011;69901;43.524;-5.636;2023-12-07T06:55:54;11.00;;;5.60;;
80557;SDS011;69901;43.524;-5.636;2023-12-07T06:58:19;11.13;;;6.10;;
80557;SDS011;69901;43.524;-5.636;2023-12-07T07:00:45;11.68;;;5.60;;
80557;SDS011;69901;43.524;-5.636;2023-12-07T07:03:11;9.13;;;5.03;;
80557;SDS011;69901;43.524;-5.636;2023-12-07T07:05:36;10.57;;;6.50;;
80557;SDS011;69901;43.524;-5.636;2023-12-07T07:08:02;12.40;;;5.90;;
80557;SDS011;69901;43.524;-5.636;2023-12-07T07:10:27;9.63;;;5.73;;
80557;SDS011;69901;43.524;-5.636;2023-12-07T07:12:53;13.37;;;6.47;;
80557;SDS011;69901;43.524;-5.636;2023-12-07T07:15:18;9.18;;;5.07;;
80557;SDS011;69901;43.524;-5.636;2023-12-07T07:17:44;11.65;;;6.47;;
80557;SDS011;69901;43.524;-5.636;2023-12-07T07:20:10;9.47;;;5.40;;
80557;SDS011;69901;43.524;-5.636;2023-12-07T07:22:36;9.50;;;5.77;;
80557;SDS011;69901;43.524;-5.636;2023-12-07T07:25:03;12.60;;;5.30;;
80557;SDS011;69901;43.524;-5.636;2023-12-07T07:27:29;9.20;;;5.75;;
80557;SDS011;69901;43.524;-5.636;2023-12-07T07:29:55;9.45;;;5.28;;
80557;SDS011;69901;43.524;-5.636;2023-12-07T07:32:20;9.80;;;5.47;;
80557;SDS011;69901;43.524;-5.636;2023-12-07T07:34:46;11.47;;;6.03;;
80557;SDS011;69901;43.524;-5.636;2023-12-07T07:37:11;8.13;;;4.70;;
80557;SDS011;69901;43.524;-5.636;2023-12-07T07:39:37;8.57;;;4.30;;
80557;SDS011;69901;43.524;-5.636;2023-12-07T07:42:02;12.40;;;5.63;;
80557;SDS011;69901;43.524;-5.636;2023-12-07T07:44:28;7.70;;;4.50;;
80557;SDS011;69901;43.524;-5.636;2023-12-07T07:46:53;7.80;;;4.60;;
80557;SDS011;69901;43.524;-5.636;2023-12-07T07:49:19;10.50;;;5.47;;
80557;SDS011;69901;43.524;-5.636;2023-12-07T07:51:44;10.23;;;4.93;;
80557;SDS011;69901;43.524;-5.636;2023-12-07T07:54:10;10.73;;;5.00;;
80557;SDS011;69901;43.524;-5.636;2023-12-07T07:56:35;7.25;;;3.83;;
80557;SDS011;69901;43.524;-5.636;2023-12-07T07:59:01;9.63;;;4.80;;
80557;SDS011;69901;43.524;-5.636;2023-12-07T08:01:26;9.43;;;3.70;;
80557;SDS011;69901;43.524;-5.636;2023-12-07T08:03:51;6.80;;;4.17;;
80557;SDS011;69901;43.524;-5.636;2023-12-07T08:06:17;7.03;;;3.95;;
80557;SDS011;69901;43.524;-5.636;2023-12-07T08:08:43;5.70;;;3.43;;
80557;SDS011;69901;43.524;-5.636;2023-12-07T08:11:09;5.03;;;3.00;;
80557;SDS011;69901;43.524;-5.636;2023-12-07T08:13:34;5.40;;;3.50;;
80557;SDS011;69901;43.524;-5.636;2023-12-07T08:16:00;5.83;;;4.03;;
80557;SDS011;69901;43.524;-5.636;2023-12-07T08:18:26;4.47;;;3.20;;
80557;SDS011;69901;43.524;-5.636;2023-12-07T08:20:51;5.47;;;4.07;;
80557;SDS011;69901;43.524;-5.636;2023-12-07T08:23:17;4.78;;;3.40;;
80557;SDS011;69901;43.524;-5.636;2023-12-07T08:25:42;5.00;;;3.40;;
80557;SDS011;69901;43.524;-5.636;2023-12-07T08:28:09;5.35;;;3.53;;
80557;SDS011;69901;43.524;-5.636;2023-12-07T08:30:34;6.57;;;3.57;;
80557;SDS011;69901;43.524;-5.636;2023-12-07T08:33:01;5.60;;;3.08;;
80557;SDS011;69901;43.524;-5.636;2023-12-07T08:35:27;5.60;;;3.38;;
80557;SDS011;69901;43.524;-5.636;2023-12-07T08:37:52;5.67;;;3.93;;
80557;SDS011;69901;43.524;-5.636;2023-12-07T08:40:18;6.95;;;3.65;;
80557;SDS011;69901;43.524;-5.636;2023-12-07T08:42:44;5.87;;;4.20;;
80557;SDS011;69901;43.524;-5.636;2023-12-07T08:45:11;5.82;;;4.18;;
80557;SDS011;69901;43.524;-5.636;2023-12-07T08:47:38;6.32;;;4.88;;
80557;SDS011;69901;43.524;-5.636;2023-12-07T08:50:04;6.07;;;4.88;;
80557;SDS011;69901;43.524;-5.636;2023-12-07T08:52:30;6.30;;;4.80;;
80557;SDS011;69901;43.524;-5.636;2023-12-07T08:54:55;5.70;;;5.03;;
80557;SDS011;69901;43.524;-5.636;2023-12-07T08:57:21;6.93;;;5.20;;
80557;SDS011;69901;43.524;-5.636;2023-12-07T08:59:47;6.03;;;5.10;;
80557;SDS011;69901;43.524;-5.636;2023-12-07T09:02:12;6.37;;;5.50;;
80557;SDS011;69901;43.524;-5.636;2023-12-07T09:04:38;5.22;;;4.72;;
80557;SDS011;69901;43.524;-5.636;2023-12-07T09:07:04;6.22;;;5.63;;
80557;SDS011;69901;43.524;-5.636;2023-12-07T09:09:30;5.30;;;4.80;;
80557;SDS011;69901;43.524;-5.636;2023-12-07T09:11:56;6.10;;;5.50;;
80557;SDS011;69901;43.524;-5.636;2023-12-07T09:14:22;6.10;;;5.50;;
80557;SDS011;69901;43.524;-5.636;2023-12-07T09:16:47;5.90;;;5.20;;
80557;SDS011;69901;43.524;-5.636;2023-12-07T09:19:13;6.53;;;4.87;;
80557;SDS011;69901;43.524;-5.636;2023-12-07T09:21:39;6.30;;;5.70;;
80557;SDS011;69901;43.524;-5.636;2023-12-07T09:24:06;6.30;;;5.67;;
80557;SDS011;69901;43.524;-5.636;2023-12-07T09:26:32;5.82;;;5.22;;
80557;SDS011;69901;43.524;-5.636;2023-12-07T09:28:57;6.30;;;5.35;;
80557;SDS011;69901;43.524;-5.636;2023-12-07T09:31:23;5.87;;;5.27;;
80557;SDS011;69901;43.524;-5.636;2023-12-07T09:33:49;6.00;;;5.40;;
80557;SDS011;69901;43.524;-5.636;2023-12-07T09:36:17;6.60;;;5.80;;
80557;SDS011;69901;43.524;-5.636;2023-12-07T09:38:43;6.53;;;5.88;;
80557;SDS011;69901;43.524;-5.636;2023-12-07T09:41:09;6.53;;;5.85;;
80557;SDS011;69901;43.524;-5.636;2023-12-07T09:43:36;6.73;;;5.60;;
80557;SDS011;69901;43.524;-5.636;2023-12-07T09:46:01;7.00;;;5.22;;
80557;SDS011;69901;43.524;-5.636;2023-12-07T09:48:27;7.00;;;5.70;;
80557;SDS011;69901;43.524;-5.636;2023-12-07T09:50:56;7.50;;;5.70;;
80557;SDS011;69901;43.524;-5.636;2023-12-07T09:53:24;6.50;;;5.80;;
80557;SDS011;69901;43.524;-5.636;2023-12-07T09:55:50;6.53;;;5.80;;
80557;SDS011;69901;43.524;-5.636;2023-12-07T09:58:16;6.63;;;5.50;;
80557;SDS011;69901;43.524;-5.636;2023-12-07T10:00:41;6.57;;;5.93;;
80557;SDS011;69901;43.524;-5.636;2023-12-07T10:03:07;7.10;;;6.40;;
80557;SDS011;69901;43.524;-5.636;2023-12-07T10:05:33;15.20;;;9.00;;
80557;SDS011;69901;43.524;-5.636;2023-12-07T10:07:59;39.75;;;20.83;;
80557;SDS011;69901;43.524;-5.636;2023-12-07T10:10:24;24.73;;;15.43;;
80557;SDS011;69901;43.524;-5.636;2023-12-07T10:12:55;16.30;;;11.40;;
80557;SDS011;69901;43.524;-5.636;2023-12-07T10:15:23;9.00;;;8.05;;
80557;SDS011;69901;43.524;-5.636;2023-12-07T10:17:50;7.25;;;6.55;;
80557;SDS011;69901;43.524;-5.636;2023-12-07T10:20:17;7.22;;;6.53;;
80557;SDS011;69901;43.524;-5.636;2023-12-07T10:23:07;6.93;;;6.32;;
80557;SDS011;69901;43.524;-5.636;2023-12-07T10:25:37;7.80;;;7.10;;
80557;SDS011;69901;43.524;-5.636;2023-12-07T10:28:05;7.35;;;6.65;;
80557;SDS011;69901;43.524;-5.636;2023-12-07T10:30:33;7.45;;;6.65;;
80557;SDS011;69901;43.524;-5.636;2023-12-07T10:33:05;7.55;;;6.75;;
80557;SDS011;69901;43.524;-5.636;2023-12-07T10:35:38;7.30;;;6.60;;
80557;SDS011;69901;43.524;-5.636;2023-12-07T10:38:05;7.40;;;6.70;;
80557;SDS011;69901;43.524;-5.636;2023-12-07T10:40:31;7.03;;;6.32;;
80557;SDS011;69901;43.524;-5.636;2023-12-07T10:42:57;6.97;;;6.30;;
80557;SDS011;69901;43.524;-5.636;2023-12-07T10:45:24;6.82;;;5.68;;
80557;SDS011;69901;43.524;-5.636;2023-12-07T10:47:51;6.80;;;6.10;;
80557;SDS011;69901;43.524;-5.636;2023-12-07T10:50:21;7.25;;;6.55;;
80557;SDS011;69901;43.524;-5.636;2023-12-07T10:52:52;7.47;;;6.78;;
80557;SDS011;69901;43.524;-5.636;2023-12-07T10:55:21;7.30;;;6.60;;
80557;SDS011;69901;43.524;-5.636;2023-12-07T10:57:51;7.68;;;6.90;;
80557;SDS011;69901;43.524;-5.636;2023-12-07T11:00:18;7.55;;;6.85;;
80557;SDS011;69901;43.524;-5.636;2023-12-07T11:02:44;7.40;;;6.70;;
80557;SDS011;69901;43.524;-5.636;2023-12-07T11:05:11;7.43;;;6.72;;
80557;SDS011;69901;43.524;-5.636;2023-12-07T11:10:23;7.95;;;7.07;;
80557;SDS011;69901;43.524;-5.636;2023-12-07T11:13:13;7.63;;;6.93;;
80557;SDS011;69901;43.524;-5.636;2023-12-07T11:15:41;7.47;;;6.78;;
80557;SDS011;69901;43.524;-5.636;2023-12-07T11:18:07;7.27;;;6.63;;
80557;SDS011;69901;43.524;-5.636;2023-12-07T11:20:40;8.13;;;7.30;;
80557;SDS011;69901;43.524;-5.636;2023-12-07T11:23:10;7.80;;;7.10;;
80557;SDS011;69901;43.524;-5.636;2023-12-07T11:25:36;7.88;;;7.18;;
80557;SDS011;69901;43.524;-5.636;2023-12-07T11:28:03;8.30;;;7.60;;
80557;SDS011;69901;43.524;-5.636;2023-12-07T11:30:33;8.40;;;7.60;;
80557;SDS011;69901;43.524;-5.636;2023-12-07T11:33:01;8.40;;;7.70;;
80557;SDS011;69901;43.524;-5.636;2023-12-07T11:35:29;8.17;;;7.40;;
80557;SDS011;69901;43.524;-5.636;2023-12-07T11:40:31;8.20;;;7.50;;
80557;SDS011;69901;43.524;-5.636;2023-12-07T11:43:00;7.72;;;7.03;;
80557;SDS011;69901;43.524;-5.636;2023-12-07T11:45:39;8.18;;;7.47;;
80557;SDS011;69901;43.524;-5.636;2023-12-07T11:48:15;8.13;;;7.43;;
80557;SDS011;69901;43.524;-5.636;2023-12-07T11:50:56;8.43;;;7.72;;
80557;SDS011;69901;43.524;-5.636;2023-12-07T11:53:28;8.57;;;7.67;;
80557;SDS011;69901;43.524;-5.636;2023-12-07T11:55:56;9.00;;;7.47;;
80557;SDS011;69901;43.524;-5.636;2023-12-07T11:58:24;8.57;;;7.70;;
80557;SDS011;69901;43.524;-5.636;2023-12-07T12:00:50;7.95;;;7.20;;
80557;SDS011;69901;43.524;-5.636;2023-12-07T12:03:17;8.10;;;7.40;;
80557;SDS011;69901;43.524;-5.636;2023-12-07T12:05:42;8.60;;;7.80;;
80557;SDS011;69901;43.524;-5.636;2023-12-07T12:08:09;9.15;;;8.35;;
80557;SDS011;69901;43.524;-5.636;2023-12-07T12:10:35;9.10;;;8.30;;
80557;SDS011;69901;43.524;-5.636;2023-12-07T12:13:01;8.47;;;7.67;;
80557;SDS011;69901;43.524;-5.636;2023-12-07T12:15:28;10.05;;;9.15;;
80557;SDS011;69901;43.524;-5.636;2023-12-07T12:17:55;9.10;;;8.38;;
80557;SDS011;69901;43.524;-5.636;2023-12-07T12:20:22;8.88;;;8.10;;
80557;SDS011;69901;43.524;-5.636;2023-12-07T12:22:49;9.38;;;8.57;;
80557;SDS011;69901;43.524;-5.636;2023-12-07T12:25:15;9.13;;;8.40;;
80557;SDS011;69901;43.524;-5.636;2023-12-07T12:27:41;9.30;;;8.40;;
80557;SDS011;69901;43.524;-5.636;2023-12-07T12:30:07;8.82;;;8.02;;
80557;SDS011;69901;43.524;-5.636;2023-12-07T12:32:41;9.18;;;8.38;;
80557;SDS011;69901;43.524;-5.636;2023-12-07T12:35:10;9.20;;;8.37;;
80557;SDS011;69901;43.524;-5.636;2023-12-07T12:37:38;9.07;;;8.27;;
80557;SDS011;69901;43.524;-5.636;2023-12-07T12:40:05;9.80;;;8.95;;
80557;SDS011;69901;43.524;-5.636;2023-12-07T12:42:31;10.43;;;9.52;;
80557;SDS011;69901;43.524;-5.636;2023-12-07T12:44:58;11.00;;;10.10;;
80557;SDS011;69901;43.524;-5.636;2023-12-07T12:47:23;10.03;;;9.23;;
80557;SDS011;69901;43.524;-5.636;2023-12-07T12:49:49;10.23;;;9.43;;
80557;SDS011;69901;43.524;-5.636;2023-12-07T12:52:15;11.88;;;10.77;;
80557;SDS011;69901;43.524;-5.636;2023-12-07T12:54:44;10.17;;;9.27;;
80557;SDS011;69901;43.524;-5.636;2023-12-07T12:57:10;9.80;;;8.90;;
80557;SDS011;69901;43.524;-5.636;2023-12-07T12:59:36;9.70;;;8.90;;
80557;SDS011;69901;43.524;-5.636;2023-12-07T13:02:02;10.20;;;9.40;;
80557;SDS011;69901;43.524;-5.636;2023-12-07T13:04:31;9.57;;;8.70;;
80557;SDS011;69901;43.524;-5.636;2023-12-07T13:06:56;9.67;;;8.87;;
80557;SDS011;69901;43.524;-5.636;2023-12-07T13:09:22;9.88;;;9.07;;
80557;SDS011;69901;43.524;-5.636;2023-12-07T13:11:48;9.57;;;8.67;;
80557;SDS011;69901;43.524;-5.636;2023-12-07T13:14:14;9.57;;;8.77;;
80557;SDS011;69901;43.524;-5.636;2023-12-07T13:16:39;10.70;;;9.60;;
80557;SDS011;69901;43.524;-5.636;2023-12-07T13:19:05;10.57;;;9.57;;
80557;SDS011;69901;43.524;-5.636;2023-12-07T13:21:32;14.20;;;12.50;;
80557;SDS011;69901;43.524;-5.636;2023-12-07T13:23:57;15.53;;;13.17;;
80557;SDS011;69901;43.524;-5.636;2023-12-07T13:26:23;11.82;;;10.75;;
80557;SDS011;69901;43.524;-5.636;2023-12-07T13:28:49;9.10;;;8.30;;
80557;SDS011;69901;43.524;-5.636;2023-12-07T13:31:15;9.80;;;8.90;;
80557;SDS011;69901;43.524;-5.636;2023-12-07T13:33:41;9.55;;;8.75;;
80557;SDS011;69901;43.524;-5.636;2023-12-07T13:36:07;9.60;;;8.80;;
80557;SDS011;69901;43.524;-5.636;2023-12-07T13:38:33;10.23;;;9.43;;
80557;SDS011;69901;43.524;-5.636;2023-12-07T13:41:00;10.20;;;9.40;;
80557;SDS011;69901;43.524;-5.636;2023-12-07T13:43:26;10.00;;;9.20;;
80557;SDS011;69901;43.524;-5.636;2023-12-07T13:45:52;9.73;;;8.93;;
80557;SDS011;69901;43.524;-5.636;2023-12-07T13:48:18;10.10;;;9.30;;
80557;SDS011;69901;43.524;-5.636;2023-12-07T13:50:43;9.43;;;8.65;;
80557;SDS011;69901;43.524;-5.636;2023-12-07T13:53:09;10.30;;;9.40;;
80557;SDS011;69901;43.524;-5.636;2023-12-07T13:55:35;10.18;;;9.32;;
80557;SDS011;69901;43.524;-5.636;2023-12-07T13:58:02;10.50;;;9.50;;
80557;SDS011;69901;43.524;-5.636;2023-12-07T14:00:28;9.90;;;9.00;;
80557;SDS011;69901;43.524;-5.636;2023-12-07T14:02:53;10.23;;;9.43;;
80557;SDS011;69901;43.524;-5.636;2023-12-07T14:05:20;9.75;;;8.95;;
80557;SDS011;69901;43.524;-5.636;2023-12-07T14:07:45;9.83;;;9.03;;
80557;SDS011;69901;43.524;-5.636;2023-12-07T14:10:11;10.02;;;9.20;;
80557;SDS011;69901;43.524;-5.636;2023-12-07T14:12:37;10.17;;;9.30;;
80557;SDS011;69901;43.524;-5.636;2023-12-07T14:15:02;9.60;;;8.80;;
80557;SDS011;69901;43.524;-5.636;2023-12-07T14:17:28;9.88;;;9.07;;
80557;SDS011;69901;43.524;-5.636;2023-12-07T14:20:02;9.48;;;8.68;;
80557;SDS011;69901;43.524;-5.636;2023-12-07T14:22:32;9.77;;;8.98;;
80557;SDS011;69901;43.524;-5.636;2023-12-07T14:24:58;9.88;;;9.07;;
80557;SDS011;69901;43.524;-5.636;2023-12-07T14:27:23;9.90;;;9.10;;
80557;SDS011;69901;43.524;-5.636;2023-12-07T14:29:50;10.20;;;9.40;;
80557;SDS011;69901;43.524;-5.636;2023-12-07T14:32:15;10.60;;;9.80;;